• Join FlightAware (Why Join?)
  • Login
  • US Flag 
01:32AM EDT


 

Airport Tracker/Info


-or-


 

Live Flight TrackerFlight Track Log ✈ SKW5550 ✈ 27-Aug-2013 ✈ KCOD - KDEN

Flight Track Log - Related Links

Times and Time Zones

All times are in EDT time to prevent confusion due to time zone crossing. See the SKW5550 flight status page for this flight to view local times or setup timezone preferences in your user account.

Time Position Orientation Groundspeed Altitude Reporting Facility
EDT Latitude Longitude Course Direction KTS MPH feet Rate Location/Type
09:26AM 44.5411 -108.9914 157° South 208 239 6,200  Level Salt Lake Center
09:27AM 44.5836 -109.0144 339° North 203 234 8,000 1,860 Climbing Salt Lake Center
09:28AM 44.6225 -108.9750 36° Northeast 228 262 10,000 1,800 Climbing Salt Lake Center
09:29AM 44.1490 -108.6828 159° South  Level FlightAware Approximate
09:29AM 44.5631 -108.9253 149° Southeast 251 289 11,700  Level Salt Lake Center
09:30AM 44.0531 -108.6304 159° South  Level FlightAware Approximate
09:30AM 44.4886 -108.8875 160° South 271 312 13,500  Level Salt Lake Center
09:31AM 43.9574 -108.5779 157° South  Level FlightAware Approximate
09:31AM 44.3917 -108.8344 159° South 301 346 14,800  Level Salt Lake Center
09:32AM 44.3008 -108.7814 157° South 338 389 16,500 1,680 Climbing Salt Lake Center
09:33AM 44.2111 -108.7292 157° South 349 402 18,300 1,620 Climbing Salt Lake Center
09:34AM 44.1281 -108.6681 152° Southeast 342 394 19,800 1,320 Climbing Salt Lake Center
09:35AM 44.0481 -108.5911 145° Southeast 349 402 21,000 1,020 Climbing Salt Lake Center
09:36AM 43.9667 -108.5144 146° Southeast 353 406 21,900 900 Climbing Salt Lake Center
09:37AM 43.8814 -108.4336 146° Southeast 368 423 22,900 780 Climbing Salt Lake Center
09:38AM 43.7944 -108.3525 146° Southeast 376 433 23,500 720 Climbing Salt Lake Center
09:39AM 43.6869 -108.2519 146° Southeast 389 448 24,400 900 Climbing Salt Lake Center
09:40AM 43.5964 -108.1664 146° Southeast 393 452 25,400 960 Climbing Salt Lake Center
09:41AM 43.5075 -108.0842 146° Southeast 388 447 26,400 720 Climbing Salt Lake Center
09:43AM 43.4189 -108.0017 146° Southeast 387 445 26,900 480 Climbing Salt Lake Center
09:44AM 43.3278 -107.9169 146° Southeast 396 456 27,400 480 Climbing Salt Lake Center
09:45AM 43.2358 -107.8314 146° Southeast 400 460 27,900 480 Climbing Salt Lake Center
09:46AM 43.1425 -107.7458 146° Southeast 404 465 28,400 480 Climbing Salt Lake Center
09:47AM 43.0500 -107.6600 146° Southeast 405 466 28,900 360 Climbing Salt Lake Center
09:48AM 42.9561 -107.5764 147° Southeast 404 465 29,200 240 Climbing Salt Lake Center
09:49AM 42.8569 -107.4842 146° Southeast 410 472 29,500 360 Climbing Salt Lake Center
09:50AM 42.7508 -107.3867 146° Southeast 413 475 30,000 420 Climbing Salt Lake Center
09:51AM 42.6606 -107.3022 145° Southeast 410 472 30,400 360 Climbing Denver Center
09:52AM 42.5694 -107.2161 145° Southeast 414 476 30,800 240 Climbing Denver Center
09:53AM 42.4767 -107.1311 146° Southeast 420 483 31,000 60 Climbing Denver Center
09:54AM 42.3681 -107.0294 145° Southeast 426 490 31,000  Level Denver Center
09:55AM 42.2400 -106.9119 146° Southeast 435 501 31,000  Level Denver Center
09:56AM 42.1461 -106.8239 145° Southeast 432 497 31,000  Level Denver Center
09:57AM 42.0503 -106.7361 146° Southeast 435 501 31,000  Level Denver Center
09:58AM 41.9386 -106.6344 146° Southeast 435 501 31,000  Level Denver Center
09:59AM 41.8422 -106.5469 146° Southeast 436 502 31,000  Level Denver Center
10:00AM 41.7306 -106.4464 146° Southeast 434 499 31,000  Level Denver Center
10:01AM 41.6508 -106.3733 146° Southeast 434 499 31,000 -60 Level Denver Center
10:02AM 41.5364 -106.2692 146° Southeast 442 509 30,900 -660 Descending Denver Center
10:03AM 41.4222 -106.1675 146° Southeast 444 511 29,700 -1,140 Descending Denver Center
10:04AM 41.3244 -106.0806 146° Southeast 442 509 28,600 -1,200 Descending Denver Center
10:05AM 41.2114 -105.9781 146° Southeast 441 507 27,300 -1,260 Descending Denver Center
10:06AM 41.1186 -105.8964 146° Southeast 424 488 26,100 -1,200 Descending Denver Center
10:07AM 41.0186 -105.8086 146° Southeast 390 449 24,900 -1,140 Descending Denver Center
10:08AM 40.9358 -105.7353 146° Southeast 386 444 23,800 -1,080 Descending Denver Center
10:09AM 40.8475 -105.6569 146° Southeast 383 441 22,700 -1,080 Descending Denver Center
10:10AM 40.7628 -105.5828 146° Southeast 370 426 21,600 -1,080 Descending Denver Center
10:11AM 40.6775 -105.5097 147° Southeast 365 420 20,500 -1,200 Descending Denver Center
10:12AM 40.5872 -105.4078 139° Southeast 355 409 19,200 -1,140 Descending Denver Center
10:13AM 40.5306 -105.3078 127° Southeast 345 397 18,200 -900 Descending Denver Center
10:15AM 40.4833 -105.1983 120° Southeast 350 403 17,200 -1,140 Descending Denver Center
10:16AM 40.4439 -105.0658 111° Southeast 315 362 15,700 -1,020 Descending Denver Center
10:17AM 40.4175 -104.9744 111° Southeast 270 311 15,000 -840 Descending Denver Center
10:18AM 40.3661 -104.8756 124° Southeast 269 310 13,900 -960 Descending Denver Center
10:19AM 40.3022 -104.8131 143° Southeast 273 314 13,100 -1,020 Descending Denver Center
10:20AM 40.2383 -104.7700 153° Southeast 261 300 11,900 -1,200 Descending Denver Center
10:21AM 40.1767 -104.7294 153° Southeast 250 288 10,700 -1,260 Descending Denver Center
10:22AM 40.1111 -104.6958 159° South 236 272 9,400 -1,260 Descending Denver Center
10:23AM 40.0475 -104.6953 180° South 227 261 8,200 -1,200 Descending Denver Center
10:24AM 39.9878 -104.6958 180° South 200 230 7,000 -1,020 Descending Denver Center
10:25AM 39.9381 -104.6956 180° South 178 205 6,200 -780 Descending Denver Center
10:26AM 39.8964 -104.6961 181° South 151 174 5,500 -720 Descending Denver Center